Sevierville, TN (37876)

11:48 PM EST on December 28, 2014 (GMT -0500)
Ripplin' Waters RV Park | Change Station
CLOSE
Current Station
Personal Weather Station
Location: Sevierville, TN
Elevation: 883 ft
Nearby Weather Stations

Elev 883 ft 35.92 °N, 83.58 °W | Updated 5 minutes ago

Overcast
Overcast
49.5 °F
Feels Like 50 °F
N
0.0
Wind Variable Wind from WSW

Today
High -- | Low -- °F
--% Chance of Precip.
Yesterday
High -- | Low -- °F
Precip. -- in
7:43 AM 5:28 PM
First Quarter, 55% visible
Pressure 30.09 in
Visibility 1.2 miles
Clouds Overcast 300 ft
Windchill 50 °F
Dew Point 49 °F
Humidity 99%
Rainfall 0.35 in
Snow Depth Not available.
UV 0 out of 12
Pollen .10 out of 12
Air Quality Not available.
Flu Activity Not available.
METAR KTYS 290353Z 05004KT 1 1/4SM R23R/5500VP6000FT -RA BR OVC003 10/09 A3009 RMK AO2 RAB01 SLP188 P0002 T01000094

More Conditions Fewer Conditions

Pressure 30.09 in
Visibility 1.2 miles
Clouds Overcast 300 ft
Windchill 50 °F
Dew Point 49 °F
Humidity 99%
Rainfall 0.35 in
Snow Depth Not available.
UV 0 out of 12
Pollen .10 out of 12
Air Quality Not available.
Flu Activity Not available.
METAR KTYS 290353Z 05004KT 1 1/4SM R23R/5500VP6000FT -RA BR OVC003 10/09 A3009 RMK AO2 RAB01 SLP188 P0002 T01000094

More Conditions Fewer Conditions

10-Day Weather Forecast

Almanac

Astronomy

Dec. 28, 2014 Rise Set
Actual Time
Civil Twilight
Nautical Twilight
Astronomical Twilight
Moon
Length of Visible Light
Length of Day
Tomorrow will be .
, % of the Moon is Illuminated

Today's Extremes

State Highs State Lows

Community

WunderPhotos

Upload Photos

1,781,530 photos uploaded!

WunderBlogs® & News

Nearby

Air Quality

  Air Quality AQ Index Pollutant
Not available.

Snow Depth

Station Depth Elevation

Earthquake Activity

City Distance Mag. Time & Date
Minimum magnitude displayed is 2.5.

Coastal Water Temperatures

Place Temperature

Nearby Weather Stations